Accueil
METAR-TAF:

METAR-TAF

Aéroports :

Aéroport international de Tabarka-Aïn Draham

Tabarka, Tunisie

latitude: 36-57N, longitude: 008-45E, altitude: 20 m

Observation

Le bulletin a été fait il y a 1 heure et 9 minutes, à 22:00 UTC
Vent 10 kt de est/nord-est, variant entre nord et est
Température 29°C
Humidité 40%
Pression 1011 hPa
Visibilité 10 km ou plus
pas de nuages en-dessous de 1500 mètres et pas de cumulonimbus.

METAR: DTKA 162200Z 06010KT 010V090 CAVOK 29/14 Q1011 NOSIG

Heure: 00:09 (23:09 UTC)

Prévision

Le bulletin a été fait il y a 2 heures et 9 minutes, à 21:00 UTC
Prévision valable du 16 à 22 UTC au 17 à 07 UTC
Vent 10 kt de est
Visibilité 10 km ou plus
pas de nuages en-dessous de 1500 mètres et pas de cumulonimbus.

TAF: DTKA 162100Z 1622/1707 08010KT CAVOK

Observations et prévisions météorologiques de plus de 4000 aéroports (messages METAR et TAF).

Les stations disponibles sont représentées par des disques jaunes et rouges sur la carte.

Passer la souris dessus pour voir le nom de la station.

Cliquer dessus pour voir les observations et prévisions météorologiques.

Pour changer de carte: cliquez sur les boutons verts avec une croix noire pour zoomer, sur le bouton vert avec un tiret pour effectuer un zoom arrière, ou sur les flèches vertes pour les cartes adjacentes.


METAR-TAF: